Time;durP1;ratioP1;P1;durP2;ratioP2;P2;SDS_P1;SDS_P2;PMS_P1;PMS_P2;Temp;Humidity;BMP_temperature;BMP_pressure;BME280_temperature;BME280_humidity;BME280_pressure;Samples;Min_cycle;Max_cycle;Signal;HPM_P1;HPM_P2
2022/10/29 00:00:48;;;;;;;0.20;0.10;;;;;;;;;;5021076;28;20577;-88
2022/10/29 00:03:14;;;;;;;0.20;0.10;;;;;;;;;;5023953;28;20048;-89
2022/10/29 00:05:41;;;;;;;0.20;0.10;;;;;;;;;;5009346;28;20502;-87
2022/10/29 00:08:07;;;;;;;0.20;0.00;;;;;;;;;;5023570;28;21420;-89
2022/10/29 00:10:33;;;;;;;0.40;0.40;;;;;;;;;;5046231;28;20045;-88
2022/10/29 00:13:01;;;;;;;0.20;0.10;;;;;;;;;;5009810;28;20045;-87
2022/10/29 00:15:27;;;;;;;0.20;0.10;;;;;;;;;;5007131;28;20068;-88
2022/10/29 00:17:53;;;;;;;0.30;0.20;;;;;;;;;;5024825;28;20498;-88
2022/10/29 00:20:20;;;;;;;0.20;0.10;;;;;;;;;;5039671;28;20044;-88
2022/10/29 00:22:46;;;;;;;0.20;0.10;;;;;;;;;;5023381;28;20420;-88
2022/10/29 00:25:12;;;;;;;0.20;0.10;;;;;;;;;;5011337;28;20048;-88
2022/10/29 00:27:39;;;;;;;0.20;0.10;;;;;;;;;;5036470;28;20051;-88
2022/10/29 00:30:05;;;;;;;0.20;0.10;;;;;;;;;;5033352;28;20552;-88
2022/10/29 00:32:31;;;;;;;0.20;0.10;;;;;;;;;;5027423;28;20044;-88
2022/10/29 00:34:57;;;;;;;0.20;0.10;;;;;;;;;;5037798;28;20044;-88
2022/10/29 00:37:23;;;;;;;0.20;0.10;;;;;;;;;;5053672;28;20033;-88
2022/10/29 00:39:49;;;;;;;0.20;0.10;;;;;;;;;;5021778;28;20039;-88
2022/10/29 00:42:16;;;;;;;0.20;0.10;;;;;;;;;;5016632;28;20118;-87
2022/10/29 00:44:42;;;;;;;0.20;0.10;;;;;;;;;;5048116;28;20604;-88
2022/10/29 00:47:11;;;;;;;0.20;0.10;;;;;;;;;;5036295;28;20048;-88
2022/10/29 00:49:38;;;;;;;0.20;0.10;;;;;;;;;;5036030;28;20037;-88
2022/10/29 00:52:06;;;;;;;0.20;0.10;;;;;;;;;;5018228;28;20120;-88
2022/10/29 00:54:34;;;;;;;0.20;0.10;;;;;;;;;;5049529;28;20037;-89
2022/10/29 00:57:04;;;;;;;0.20;0.10;;;;;;;;;;5049257;28;20123;-89
2022/10/29 00:59:30;;;;;;;0.20;0.10;;;;;;;;;;5032229;28;20040;-89
2022/10/29 01:01:56;;;;;;;0.63;0.32;;;;;;;;;;5051631;28;20392;-89
2022/10/29 01:04:24;;;;;;;0.20;0.10;;;;;;;;;;5033540;28;20137;-89
2022/10/29 01:06:50;;;;;;;0.20;0.10;;;;;;;;;;5049614;28;20041;-89
2022/10/29 01:09:16;;;;;;;0.20;0.10;;;;;;;;;;5034387;28;20495;-88
2022/10/29 01:11:48;;;;;;;0.20;0.10;;;;;;;;;;5035774;28;20478;-87
2022/10/29 01:14:23;;;;;;;0.20;0.10;;;;;;;;;;5028545;28;20036;-87
2022/10/29 01:16:54;;;;;;;0.20;0.10;;;;;;;;;;5033495;28;20571;-89
2022/10/29 01:19:39;;;;;;;0.20;0.13;;;;;;;;;;5032250;28;20076;-88
2022/10/29 01:22:15;;;;;;;0.20;0.10;;;;;;;;;;5034905;28;20037;-86
2022/10/29 01:24:51;;;;;;;0.20;0.10;;;;;;;;;;5048768;28;20028;-89
2022/10/29 01:27:36;;;;;;;0.20;0.10;;;;;;;;;;5036644;28;20050;-89
2022/10/29 01:30:08;;;;;;;0.20;0.13;;;;;;;;;;5032660;28;20094;-88
2022/10/29 01:32:53;;;;;;;0.20;0.10;;;;;;;;;;5033940;28;20695;-88
2022/10/29 01:35:31;;;;;;;0.20;0.10;;;;;;;;;;5034536;28;22853;-88
2022/10/29 01:38:15;;;;;;;0.20;0.17;;;;;;;;;;5033194;28;20036;-88
2022/10/29 01:40:54;;;;;;;0.20;0.10;;;;;;;;;;5033298;28;20564;-88
2022/10/29 01:43:26;;;;;;;0.47;0.38;;;;;;;;;;5047992;28;20056;-87
2022/10/29 01:45:55;;;;;;;0.20;0.10;;;;;;;;;;5030147;28;20048;-88
2022/10/29 01:48:31;;;;;;;0.20;0.10;;;;;;;;;;5051079;28;20101;-89
2022/10/29 01:50:58;;;;;;;0.20;0.10;;;;;;;;;;5048180;28;20055;-88
2022/10/29 01:53:25;;;;;;;0.20;0.10;;;;;;;;;;5034390;28;20051;-89
2022/10/29 01:55:51;;;;;;;0.20;0.10;;;;;;;;;;5028813;28;20359;-88
2022/10/29 01:58:18;;;;;;;0.20;0.10;;;;;;;;;;5036499;28;20512;-86
2022/10/29 02:00:44;;;;;;;0.20;0.10;;;;;;;;;;5018918;28;20188;-89
2022/10/29 02:03:15;;;;;;;0.20;0.10;;;;;;;;;;5049865;28;20166;-89
2022/10/29 02:05:59;;;;;;;0.20;0.10;;;;;;;;;;5048919;28;20032;-87
2022/10/29 02:08:44;;;;;;;0.20;0.10;;;;;;;;;;5038890;28;20028;-88
2022/10/29 02:11:29;;;;;;;0.20;0.10;;;;;;;;;;5041272;28;20040;-88
2022/10/29 02:13:55;;;;;;;0.20;0.10;;;;;;;;;;5037002;28;20051;-88
2022/10/29 02:16:22;;;;;;;0.20;0.10;;;;;;;;;;5038058;28;20433;-88
2022/10/29 02:18:49;;;;;;;0.20;0.10;;;;;;;;;;5031449;28;20041;-87
2022/10/29 02:21:18;;;;;;;0.20;0.10;;;;;;;;;;5046567;28;20491;-88
2022/10/29 02:23:45;;;;;;;0.20;0.10;;;;;;;;;;5029800;28;20123;-89
2022/10/29 02:26:11;;;;;;;0.45;0.38;;;;;;;;;;5032593;28;20458;-88
2022/10/29 02:28:37;;;;;;;0.20;0.10;;;;;;;;;;5015345;28;20041;-88
2022/10/29 02:31:03;;;;;;;0.25;0.20;;;;;;;;;;5020818;28;20063;-88
2022/10/29 02:33:29;;;;;;;0.20;0.10;;;;;;;;;;5036476;28;20128;-89
2022/10/29 02:35:55;;;;;;;0.20;0.10;;;;;;;;;;5034335;28;20066;-89
2022/10/29 02:38:21;;;;;;;0.20;0.10;;;;;;;;;;5048321;28;20476;-88
2022/10/29 02:40:47;;;;;;;0.20;0.15;;;;;;;;;;5033194;28;20502;-88
2022/10/29 02:43:14;;;;;;;0.20;0.10;;;;;;;;;;5034725;28;20124;-88
2022/10/29 02:45:40;;;;;;;0.20;0.10;;;;;;;;;;5019659;28;20519;-88
2022/10/29 02:48:06;;;;;;;0.20;0.10;;;;;;;;;;5031894;28;20376;-87
2022/10/29 02:50:32;;;;;;;0.20;0.10;;;;;;;;;;5035180;28;20558;-86
2022/10/29 02:52:58;;;;;;;0.20;0.10;;;;;;;;;;5035397;28;20063;-88
2022/10/29 02:55:24;;;;;;;0.20;0.20;;;;;;;;;;5018905;28;20044;-87
2022/10/29 02:57:50;;;;;;;0.20;0.10;;;;;;;;;;5022018;28;20037;-88
2022/10/29 03:00:16;;;;;;;0.20;0.10;;;;;;;;;;5029845;28;20483;-88
2022/10/29 03:02:42;;;;;;;0.20;0.10;;;;;;;;;;5034289;28;20040;-88
2022/10/29 03:05:09;;;;;;;0.20;0.10;;;;;;;;;;5068911;28;20036;-87
2022/10/29 03:07:38;;;;;;;0.20;0.10;;;;;;;;;;5053366;28;20047;-86
2022/10/29 03:10:05;;;;;;;0.20;0.10;;;;;;;;;;5034359;28;20050;-87
2022/10/29 03:12:31;;;;;;;0.20;0.10;;;;;;;;;;5055975;28;21157;-88
2022/10/29 03:14:57;;;;;;;0.20;0.10;;;;;;;;;;5058299;28;20048;-87
2022/10/29 03:17:23;;;;;;;0.20;0.10;;;;;;;;;;5035961;28;20047;-87
2022/10/29 03:19:49;;;;;;;0.20;0.10;;;;;;;;;;5024335;28;20490;-86
2022/10/29 03:22:15;;;;;;;0.20;0.10;;;;;;;;;;5041386;28;20032;-88
2022/10/29 03:24:41;;;;;;;0.20;0.10;;;;;;;;;;5028888;28;20037;-87
2022/10/29 03:27:07;;;;;;;0.20;0.10;;;;;;;;;;5046202;28;20063;-87
2022/10/29 03:29:33;;;;;;;0.20;0.10;;;;;;;;;;5028031;28;20045;-87
2022/10/29 03:32:00;;;;;;;0.20;0.20;;;;;;;;;;5048248;28;20047;-87
2022/10/29 03:34:26;;;;;;;0.20;0.10;;;;;;;;;;5045974;28;20136;-87
2022/10/29 03:36:52;;;;;;;0.20;0.10;;;;;;;;;;5032950;28;20039;-87
2022/10/29 03:39:18;;;;;;;0.20;0.10;;;;;;;;;;5044082;28;20044;-87
2022/10/29 03:41:44;;;;;;;0.20;0.10;;;;;;;;;;5028535;28;20036;-85
2022/10/29 03:44:10;;;;;;;0.20;0.08;;;;;;;;;;5029039;28;20511;-87
2022/10/29 03:46:36;;;;;;;0.20;0.10;;;;;;;;;;5031629;28;20060;-86
2022/10/29 03:49:02;;;;;;;0.20;0.10;;;;;;;;;;5048754;28;20064;-86
2022/10/29 03:51:28;;;;;;;0.20;0.10;;;;;;;;;;5032377;28;20048;-87
2022/10/29 03:53:54;;;;;;;0.20;0.10;;;;;;;;;;5062100;28;20040;-87
2022/10/29 03:56:20;;;;;;;0.20;0.10;;;;;;;;;;5025297;28;20044;-88
2022/10/29 03:58:46;;;;;;;0.20;0.10;;;;;;;;;;5040233;28;20115;-87
2022/10/29 04:01:12;;;;;;;0.20;0.10;;;;;;;;;;5022518;28;20036;-87
2022/10/29 04:03:41;;;;;;;0.20;0.10;;;;;;;;;;5045738;28;20349;-87
2022/10/29 04:06:14;;;;;;;0.20;0.10;;;;;;;;;;5048690;28;20108;-86
2022/10/29 04:08:40;;;;;;;0.20;0.10;;;;;;;;;;5031737;28;20083;-87
2022/10/29 04:11:07;;;;;;;0.20;0.10;;;;;;;;;;5046351;28;20040;-87
2022/10/29 04:13:33;;;;;;;0.20;0.10;;;;;;;;;;5034641;28;20044;-87
2022/10/29 04:15:59;;;;;;;0.20;0.15;;;;;;;;;;5050613;28;20086;-87
2022/10/29 04:18:25;;;;;;;0.20;0.10;;;;;;;;;;5047734;28;20036;-87
2022/10/29 04:20:52;;;;;;;0.20;0.10;;;;;;;;;;5046977;28;20757;-87
2022/10/29 04:23:19;;;;;;;0.20;0.10;;;;;;;;;;5046463;28;20032;-87
2022/10/29 04:25:55;;;;;;;0.20;0.10;;;;;;;;;;5031245;28;20059;-87
2022/10/29 04:28:21;;;;;;;0.20;0.10;;;;;;;;;;5048321;28;20048;-87
2022/10/29 04:30:47;;;;;;;0.20;0.10;;;;;;;;;;5031737;28;20119;-88
2022/10/29 04:33:13;;;;;;;0.20;0.10;;;;;;;;;;5041279;28;20064;-86
2022/10/29 04:35:39;;;;;;;0.20;0.10;;;;;;;;;;5047609;28;20033;-87
2022/10/29 04:38:09;;;;;;;0.20;0.10;;;;;;;;;;5022736;28;20085;-87
2022/10/29 04:40:35;;;;;;;0.20;0.10;;;;;;;;;;5060268;28;20063;-86
2022/10/29 04:43:01;;;;;;;0.20;0.10;;;;;;;;;;5054623;28;20040;-85
2022/10/29 04:45:27;;;;;;;0.20;0.10;;;;;;;;;;5035567;28;22195;-85
2022/10/29 04:48:00;;;;;;;0.20;0.10;;;;;;;;;;5038048;28;20041;-85
2022/10/29 04:50:26;;;;;;;0.20;0.10;;;;;;;;;;5056363;28;20457;-85
2022/10/29 04:52:52;;;;;;;0.20;0.10;;;;;;;;;;5023337;28;20102;-86
2022/10/29 04:55:18;;;;;;;0.20;0.10;;;;;;;;;;5040829;28;20135;-86
2022/10/29 04:57:48;;;;;;;0.20;0.10;;;;;;;;;;5027893;28;20036;-86
2022/10/29 05:00:15;;;;;;;0.20;0.00;;;;;;;;;;5051347;28;20127;-86
2022/10/29 05:02:41;;;;;;;0.20;0.10;;;;;;;;;;5053555;28;20079;-86
2022/10/29 05:05:07;;;;;;;0.20;0.10;;;;;;;;;;5041078;28;20040;-87
2022/10/29 05:07:33;;;;;;;0.20;0.10;;;;;;;;;;5039839;28;20048;-86
2022/10/29 05:09:59;;;;;;;0.20;0.10;;;;;;;;;;5039077;28;20097;-87
2022/10/29 05:12:25;;;;;;;0.20;0.10;;;;;;;;;;5052853;28;20060;-86
2022/10/29 05:14:51;;;;;;;0.20;0.10;;;;;;;;;;5035203;28;20090;-86
2022/10/29 05:17:17;;;;;;;0.20;0.10;;;;;;;;;;5050610;28;20039;-87
2022/10/29 05:19:43;;;;;;;0.20;0.10;;;;;;;;;;5041463;28;20040;-86
2022/10/29 05:22:10;;;;;;;0.20;0.10;;;;;;;;;;5052864;28;20062;-86
2022/10/29 05:24:36;;;;;;;0.20;0.10;;;;;;;;;;5051195;28;20037;-86
2022/10/29 05:27:04;;;;;;;0.20;0.10;;;;;;;;;;5038433;28;20379;-86
2022/10/29 05:29:30;;;;;;;0.22;0.15;;;;;;;;;;5055471;28;20033;-87
2022/10/29 05:31:56;;;;;;;0.20;0.10;;;;;;;;;;5034867;28;20037;-86
2022/10/29 05:34:22;;;;;;;0.20;0.10;;;;;;;;;;5051033;28;20044;-86
2022/10/29 05:36:48;;;;;;;0.20;0.10;;;;;;;;;;5054497;28;20067;-87
2022/10/29 05:39:14;;;;;;;0.20;0.10;;;;;;;;;;5054422;28;20269;-87
2022/10/29 05:41:41;;;;;;;0.20;0.10;;;;;;;;;;5057704;28;20411;-87
2022/10/29 05:44:07;;;;;;;0.20;0.10;;;;;;;;;;5046839;28;20036;-87
2022/10/29 05:46:33;;;;;;;0.20;0.10;;;;;;;;;;5052319;28;20067;-88
2022/10/29 05:48:59;;;;;;;0.20;0.10;;;;;;;;;;5034713;28;20430;-88
2022/10/29 05:51:25;;;;;;;0.20;0.10;;;;;;;;;;5050041;28;20063;-86
2022/10/29 05:53:51;;;;;;;0.20;0.10;;;;;;;;;;5038004;28;20041;-87
2022/10/29 05:56:17;;;;;;;0.20;0.10;;;;;;;;;;5047006;28;20446;-87
2022/10/29 05:58:43;;;;;;;0.20;0.10;;;;;;;;;;5034728;28;20033;-87
2022/10/29 06:01:09;;;;;;;0.20;0.10;;;;;;;;;;5052476;28;20092;-87
2022/10/29 06:03:38;;;;;;;0.20;0.10;;;;;;;;;;5049677;28;20064;-86
2022/10/29 06:06:04;;;;;;;0.20;0.10;;;;;;;;;;5041422;28;20159;-83
2022/10/29 06:08:30;;;;;;;0.20;0.10;;;;;;;;;;5043712;28;20040;-87
2022/10/29 06:10:56;;;;;;;0.20;0.10;;;;;;;;;;5043065;28;20044;-86
2022/10/29 06:13:22;;;;;;;0.20;0.10;;;;;;;;;;5031570;28;20045;-86
2022/10/29 06:15:49;;;;;;;0.20;0.10;;;;;;;;;;5043812;28;20074;-86
2022/10/29 06:18:15;;;;;;;0.20;0.10;;;;;;;;;;5022380;28;20546;-85
2022/10/29 06:20:44;;;;;;;0.20;0.10;;;;;;;;;;5043717;28;20036;-87
2022/10/29 06:23:10;;;;;;;0.20;0.10;;;;;;;;;;5049748;28;20088;-87
2022/10/29 06:25:36;;;;;;;0.20;0.10;;;;;;;;;;5065083;28;21616;-85
2022/10/29 06:28:04;;;;;;;0.20;0.10;;;;;;;;;;5056030;28;20037;-85
2022/10/29 06:30:31;;;;;;;0.20;0.10;;;;;;;;;;5044918;28;20040;-84
2022/10/29 06:32:57;;;;;;;0.20;0.10;;;;;;;;;;5024464;28;20032;-84
2022/10/29 06:35:23;;;;;;;0.25;0.25;;;;;;;;;;5027701;28;20064;-86
2022/10/29 06:37:49;;;;;;;0.20;0.10;;;;;;;;;;5035856;28;20040;-85
2022/10/29 06:40:15;;;;;;;0.20;0.10;;;;;;;;;;5050793;28;20051;-86
2022/10/29 06:42:42;;;;;;;0.20;0.10;;;;;;;;;;5048822;28;20037;-86
2022/10/29 06:45:08;;;;;;;0.20;0.10;;;;;;;;;;5069698;28;20537;-86
2022/10/29 06:47:38;;;;;;;0.20;0.10;;;;;;;;;;5054380;28;20036;-83
2022/10/29 06:50:05;;;;;;;0.80;0.20;;;;;;;;;;5047769;28;20040;-85
2022/10/29 06:52:31;;;;;;;0.20;0.10;;;;;;;;;;5011250;28;20154;-85
2022/10/29 06:54:57;;;;;;;0.20;0.10;;;;;;;;;;5032473;28;20051;-85
2022/10/29 06:57:23;;;;;;;0.20;0.10;;;;;;;;;;5017317;28;20052;-84
2022/10/29 06:59:49;;;;;;;0.20;0.10;;;;;;;;;;5038006;28;20983;-85
2022/10/29 07:02:17;;;;;;;0.20;0.20;;;;;;;;;;5032841;28;20787;-85
2022/10/29 07:04:43;;;;;;;0.20;0.10;;;;;;;;;;5031988;28;20067;-84
2022/10/29 07:07:09;;;;;;;0.30;0.30;;;;;;;;;;5035384;28;20045;-86
2022/10/29 07:09:35;;;;;;;0.20;0.10;;;;;;;;;;5028506;28;20048;-85
2022/10/29 07:12:01;;;;;;;0.20;0.10;;;;;;;;;;5060313;28;20055;-86
2022/10/29 07:14:27;;;;;;;0.20;0.00;;;;;;;;;;5018346;28;20525;-85
2022/10/29 07:16:53;;;;;;;0.20;0.10;;;;;;;;;;5033325;28;20060;-86
2022/10/29 07:19:19;;;;;;;0.20;0.10;;;;;;;;;;5034228;28;20051;-85
2022/10/29 07:21:45;;;;;;;0.20;0.10;;;;;;;;;;5028422;28;20028;-85
2022/10/29 07:24:11;;;;;;;0.20;0.10;;;;;;;;;;5035609;28;20109;-84
2022/10/29 07:26:38;;;;;;;0.20;0.10;;;;;;;;;;5013367;28;20040;-85
2022/10/29 07:29:04;;;;;;;0.20;0.10;;;;;;;;;;5029679;28;20596;-86
2022/10/29 07:31:30;;;;;;;0.20;0.10;;;;;;;;;;5029593;28;20485;-86
2022/10/29 07:33:56;;;;;;;0.20;0.10;;;;;;;;;;5033096;28;20132;-86
2022/10/29 07:36:23;;;;;;;0.20;0.10;;;;;;;;;;5049940;28;20037;-85
2022/10/29 07:38:49;;;;;;;0.20;0.10;;;;;;;;;;5060080;28;20037;-86
2022/10/29 07:41:15;;;;;;;0.20;0.10;;;;;;;;;;5051954;28;20401;-87
2022/10/29 07:43:41;;;;;;;0.20;0.10;;;;;;;;;;5034306;28;20040;-86
2022/10/29 07:46:07;;;;;;;0.20;0.10;;;;;;;;;;5030519;28;20061;-85
2022/10/29 07:48:33;;;;;;;0.20;0.10;;;;;;;;;;5041918;28;20181;-86
2022/10/29 07:51:00;;;;;;;0.20;0.10;;;;;;;;;;5025617;28;20047;-86
2022/10/29 07:53:26;;;;;;;0.20;0.10;;;;;;;;;;5043027;28;20053;-87
2022/10/29 07:55:53;;;;;;;0.20;0.10;;;;;;;;;;5047184;28;20036;-86
2022/10/29 07:58:19;;;;;;;0.20;0.10;;;;;;;;;;5059230;28;20098;-85
2022/10/29 08:00:45;;;;;;;0.20;0.10;;;;;;;;;;5056123;28;20064;-87
2022/10/29 08:03:11;;;;;;;0.20;0.10;;;;;;;;;;5045938;28;20041;-87
2022/10/29 08:05:38;;;;;;;0.20;0.10;;;;;;;;;;5040667;28;20040;-86
2022/10/29 08:08:04;;;;;;;0.43;0.20;;;;;;;;;;5040472;28;20122;-87
2022/10/29 08:10:31;;;;;;;0.20;0.10;;;;;;;;;;5035525;28;20041;-86
2022/10/29 08:12:58;;;;;;;0.20;0.10;;;;;;;;;;5041542;28;20044;-87
2022/10/29 08:15:24;;;;;;;0.20;0.10;;;;;;;;;;5026937;28;20048;-87
2022/10/29 08:17:51;;;;;;;0.20;0.10;;;;;;;;;;5041964;28;20041;-85
2022/10/29 08:20:17;;;;;;;0.20;0.10;;;;;;;;;;5032262;28;20044;-87
2022/10/29 08:22:43;;;;;;;0.20;0.10;;;;;;;;;;5034386;28;20036;-85
2022/10/29 08:25:10;;;;;;;0.20;0.10;;;;;;;;;;5038373;28;20060;-85
2022/10/29 08:27:36;;;;;;;0.20;0.10;;;;;;;;;;5054645;28;20045;-85
2022/10/29 08:30:02;;;;;;;0.20;0.10;;;;;;;;;;5035789;28;20563;-88
2022/10/29 08:32:28;;;;;;;0.20;0.10;;;;;;;;;;5049218;28;20131;-86
2022/10/29 08:34:55;;;;;;;0.20;0.10;;;;;;;;;;5037534;28;20534;-86
2022/10/29 08:37:21;;;;;;;0.20;0.10;;;;;;;;;;5023026;28;20037;-86
2022/10/29 08:39:47;;;;;;;0.20;0.10;;;;;;;;;;5039494;28;20068;-87
2022/10/29 08:42:25;;;;;;;0.20;0.10;;;;;;;;;;5039084;28;20044;-86
2022/10/29 08:45:06;;;;;;;0.20;0.10;;;;;;;;;;5041449;28;20051;-85
2022/10/29 08:47:38;;;;;;;0.20;0.10;;;;;;;;;;5039004;28;20032;-87
2022/10/29 08:50:22;;;;;;;0.20;0.10;;;;;;;;;;5045729;28;20104;-87
2022/10/29 08:52:49;;;;;;;0.20;0.10;;;;;;;;;;5044650;28;20075;-84
2022/10/29 08:55:20;;;;;;;0.20;0.10;;;;;;;;;;5034563;28;20040;-87
2022/10/29 08:57:48;;;;;;;0.20;0.10;;;;;;;;;;5052784;28;22913;-87
2022/10/29 09:00:14;;;;;;;0.20;0.20;;;;;;;;;;5027885;28;20074;-86
2022/10/29 09:02:40;;;;;;;0.20;0.10;;;;;;;;;;5048845;28;20209;-86
2022/10/29 09:05:19;;;;;;;0.20;0.10;;;;;;;;;;5052862;28;20642;-88
2022/10/29 09:07:55;;;;;;;0.20;0.10;;;;;;;;;;5041414;28;20044;-88
2022/10/29 09:10:40;;;;;;;0.20;0.10;;;;;;;;;;5061828;28;20044;-89
2022/10/29 09:13:23;;;;;;;0.20;0.10;;;;;;;;;;5031714;28;21863;-87
2022/10/29 09:15:49;;;;;;;;;;;;;;;;;;5040125;28;20045;-86
2022/10/29 09:18:15;;;;;;;0.20;0.20;;;;;;;;;;5038726;28;20333;-88
2022/10/29 09:20:59;;;;;;;0.20;0.10;;;;;;;;;;5051041;28;20044;-90
2022/10/29 09:23:29;;;;;;;0.20;0.10;;;;;;;;;;5038255;28;20040;-89
2022/10/29 09:26:03;;;;;;;0.20;0.10;;;;;;;;;;5042051;28;20072;-89
2022/10/29 09:28:41;;;;;;;0.20;0.10;;;;;;;;;;5045316;28;20525;-88
2022/10/29 09:31:16;;;;;;;0.20;0.10;;;;;;;;;;5056324;28;20044;-88
2022/10/29 09:33:44;;;;;;;0.20;0.10;;;;;;;;;;5036786;28;20040;-88
2022/10/29 09:36:21;;;;;;;0.20;0.10;;;;;;;;;;5028969;28;20688;-87
2022/10/29 09:38:47;;;;;;;0.20;0.10;;;;;;;;;;5048961;28;20451;-87
2022/10/29 09:41:13;;;;;;;0.20;0.10;;;;;;;;;;5049002;28;20079;-88
2022/10/29 09:43:46;;;;;;;0.20;0.10;;;;;;;;;;5031919;28;20037;-88
2022/10/29 09:46:12;;;;;;;;;;;;;;;;;;5035324;28;20376;-89
2022/10/29 09:51:40;;;;;;;0.20;0.10;;;;;;;;;;5072215;27;20449;-87
2022/10/29 09:54:06;;;;;;;0.45;0.45;;;;;;;;;;5066354;28;20051;-86
2022/10/29 09:56:32;;;;;;;0.20;0.10;;;;;;;;;;5051280;28;20052;-86
2022/10/29 09:59:07;;;;;;;0.20;0.10;;;;;;;;;;5051338;28;20622;-87
2022/10/29 10:01:33;;;;;;;0.20;0.10;;;;;;;;;;5047508;28;20558;-85
2022/10/29 10:04:05;;;;;;;0.20;0.17;;;;;;;;;;5051487;28;20072;-85
2022/10/29 10:06:51;;;;;;;0.20;0.10;;;;;;;;;;5051000;28;20067;-85
2022/10/29 10:09:20;;;;;;;0.20;0.17;;;;;;;;;;5047967;28;20080;-85
2022/10/29 10:11:51;;;;;;;0.20;0.10;;;;;;;;;;5047223;28;20036;-85
2022/10/29 10:14:19;;;;;;;0.20;0.10;;;;;;;;;;5048992;28;20037;-86
2022/10/29 10:16:45;;;;;;;0.20;0.10;;;;;;;;;;5063747;28;20067;-85
2022/10/29 10:19:22;;;;;;;0.20;0.10;;;;;;;;;;5036626;28;20051;-86
2022/10/29 10:21:55;;;;;;;0.20;0.10;;;;;;;;;;5065709;28;20040;-86
2022/10/29 10:24:29;;;;;;;0.20;0.10;;;;;;;;;;5048294;28;20097;-86
2022/10/29 10:26:57;;;;;;;0.20;0.10;;;;;;;;;;5066378;28;20579;-85
2022/10/29 10:29:25;;;;;;;0.20;0.10;;;;;;;;;;5032371;28;20062;-85
2022/10/29 10:31:57;;;;;;;0.20;0.10;;;;;;;;;;5051160;28;20051;-86
2022/10/29 10:34:41;;;;;;;0.20;0.10;;;;;;;;;;5055409;28;20040;-85
2022/10/29 10:37:10;;;;;;;0.20;0.10;;;;;;;;;;5051858;28;20043;-85
2022/10/29 10:39:37;;;;;;;0.20;0.10;;;;;;;;;;5053289;28;20090;-85
2022/10/29 10:42:18;;;;;;;0.20;0.10;;;;;;;;;;5050400;28;20628;-86
2022/10/29 10:44:51;;;;;;;0.20;0.10;;;;;;;;;;5054960;28;20394;-86
2022/10/29 10:47:22;;;;;;;0.20;0.10;;;;;;;;;;5063189;28;20154;-85
2022/10/29 10:49:49;;;;;;;0.20;0.10;;;;;;;;;;5066451;28;20059;-85
2022/10/29 10:52:21;;;;;;;0.20;0.10;;;;;;;;;;5050475;28;20542;-85
2022/10/29 10:55:07;;;;;;;0.20;0.10;;;;;;;;;;5028578;28;20549;-85
2022/10/29 10:57:35;;;;;;;0.20;0.10;;;;;;;;;;5044379;28;20040;-85
2022/10/29 11:00:18;;;;;;;0.20;0.10;;;;;;;;;;5061403;28;20051;-85
2022/10/29 11:02:56;;;;;;;0.20;0.10;;;;;;;;;;5037035;28;20150;-85
2022/10/29 11:05:25;;;;;;;0.20;0.10;;;;;;;;;;5039920;28;20040;-85
2022/10/29 11:08:12;;;;;;;0.20;0.10;;;;;;;;;;5031764;28;20048;-85
2022/10/29 11:10:58;;;;;;;0.20;0.10;;;;;;;;;;5034025;28;20364;-85
2022/10/29 11:13:26;;;;;;;0.20;0.10;;;;;;;;;;5037354;28;20068;-84
2022/10/29 11:15:58;;;;;;;0.20;0.10;;;;;;;;;;5032196;28;20039;-85
2022/10/29 11:18:34;;;;;;;0.20;0.10;;;;;;;;;;5034147;28;22078;-85
2022/10/29 11:21:03;;;;;;;0.20;0.10;;;;;;;;;;5034143;28;20306;-86
2022/10/29 11:23:49;;;;;;;0.20;0.10;;;;;;;;;;5042778;28;20048;-84
2022/10/29 11:26:19;;;;;;;0.20;0.10;;;;;;;;;;5032471;28;20079;-85
2022/10/29 11:29:04;;;;;;;0.20;0.10;;;;;;;;;;5047673;28;20507;-86
2022/10/29 11:31:49;;;;;;;0.20;0.10;;;;;;;;;;5051933;28;20040;-86
2022/10/29 11:34:34;;;;;;;0.20;0.10;;;;;;;;;;5053557;28;20109;-85
2022/10/29 11:37:02;;;;;;;0.20;0.10;;;;;;;;;;5038027;28;20136;-85
2022/10/29 11:39:47;;;;;;;0.20;0.10;;;;;;;;;;5048764;28;20112;-85
2022/10/29 11:42:13;;;;;;;0.20;0.10;;;;;;;;;;5052705;28;20029;-86
2022/10/29 11:44:40;;;;;;;0.20;0.10;;;;;;;;;;5016065;28;20037;-85
2022/10/29 11:47:17;;;;;;;0.20;0.10;;;;;;;;;;5033621;28;20043;-86
2022/10/29 11:49:46;;;;;;;0.20;0.10;;;;;;;;;;5030968;28;21522;-87
2022/10/29 11:52:25;;;;;;;0.20;0.10;;;;;;;;;;5052033;28;20063;-87
2022/10/29 11:55:02;;;;;;;0.20;0.10;;;;;;;;;;5053544;28;20044;-86
2022/10/29 11:57:45;;;;;;;0.20;0.10;;;;;;;;;;5036818;28;20075;-86
2022/10/29 12:00:13;;;;;;;0.20;0.10;;;;;;;;;;5033516;28;20068;-87
2022/10/29 12:03:03;;;;;;;0.20;0.10;;;;;;;;;;5039086;28;20037;-86
2022/10/29 12:05:43;;;;;;;0.20;0.10;;;;;;;;;;5039087;28;20043;-86
2022/10/29 12:08:28;;;;;;;0.20;0.10;;;;;;;;;;5049748;28;20040;-86
2022/10/29 12:11:03;;;;;;;0.20;0.10;;;;;;;;;;5035131;28;20037;-86
2022/10/29 12:13:32;;;;;;;0.20;0.10;;;;;;;;;;5047406;28;20033;-87
2022/10/29 12:16:34;;;;;;;0.20;0.10;;;;;;;;;;5050791;28;20051;-87
2022/10/29 12:19:06;;;;;;;0.20;0.10;;;;;;;;;;5031117;28;20044;-86
2022/10/29 12:21:35;;;;;;;0.20;0.10;;;;;;;;;;5032837;28;20567;-87
2022/10/29 12:24:13;;;;;;;0.20;0.10;;;;;;;;;;5034401;28;20045;-86
2022/10/29 12:26:43;;;;;;;0.20;0.10;;;;;;;;;;5041108;28;20399;-88
2022/10/29 12:29:34;;;;;;;0.20;0.10;;;;;;;;;;5031484;28;20044;-85
2022/10/29 12:32:15;;;;;;;0.20;0.10;;;;;;;;;;5037968;28;20502;-87
2022/10/29 12:34:46;;;;;;;0.20;0.10;;;;;;;;;;5052033;28;20041;-85
2022/10/29 12:37:12;;;;;;;0.20;0.10;;;;;;;;;;5046811;28;20483;-86
2022/10/29 12:39:46;;;;;;;0.20;0.10;;;;;;;;;;5033012;28;20048;-87
2022/10/29 12:42:15;;;;;;;0.20;0.10;;;;;;;;;;5047931;28;20556;-86
2022/10/29 12:44:45;;;;;;;0.20;0.10;;;;;;;;;;5036579;28;20048;-86
2022/10/29 12:47:19;;;;;;;0.20;0.10;;;;;;;;;;5033336;28;20044;-88
2022/10/29 12:49:45;;;;;;;0.20;0.10;;;;;;;;;;5047587;28;20045;-86
2022/10/29 12:52:28;;;;;;;0.63;0.10;;;;;;;;;;5038223;28;20400;-86
2022/10/29 12:54:55;;;;;;;0.20;0.10;;;;;;;;;;5051751;28;20060;-87
2022/10/29 12:57:48;;;;;;;0.20;0.10;;;;;;;;;;5049493;28;20124;-87
2022/10/29 13:00:23;;;;;;;0.20;0.10;;;;;;;;;;5043539;28;20756;-89
2022/10/29 13:02:50;;;;;;;0.20;0.10;;;;;;;;;;5035042;28;20041;-87
2022/10/29 13:05:45;;;;;;;0.20;0.10;;;;;;;;;;5031915;28;20119;-86
2022/10/29 13:08:20;;;;;;;0.20;0.10;;;;;;;;;;5033908;28;20041;-88
2022/10/29 13:10:51;;;;;;;0.20;0.10;;;;;;;;;;5039451;28;20120;-87
2022/10/29 13:13:17;;;;;;;0.20;0.10;;;;;;;;;;5036764;28;20045;-86
2022/10/29 13:15:48;;;;;;;0.20;0.10;;;;;;;;;;5047403;28;20500;-88
2022/10/29 13:18:21;;;;;;;0.20;0.20;;;;;;;;;;5058025;28;20044;-86
2022/10/29 13:20:51;;;;;;;0.20;0.10;;;;;;;;;;5051489;28;20037;-85
2022/10/29 13:23:24;;;;;;;0.20;0.10;;;;;;;;;;5037348;28;20036;-86
2022/10/29 13:25:50;;;;;;;;;;;;;;;;;;5059759;28;20040;-88
2022/10/29 13:28:16;;;;;;;0.20;0.10;;;;;;;;;;5038286;28;19923;-88
2022/10/29 13:30:43;;;;;;;0.20;0.10;;;;;;;;;;5039604;28;20040;-87
2022/10/29 13:33:27;;;;;;;0.20;0.10;;;;;;;;;;5037491;28;20065;-86
2022/10/29 13:35:55;;;;;;;0.20;0.10;;;;;;;;;;5053337;28;20044;-85
2022/10/29 13:38:39;;;;;;;0.20;0.10;;;;;;;;;;5038179;28;20108;-85
2022/10/29 13:41:08;;;;;;;0.20;0.10;;;;;;;;;;5040160;28;20067;-85
2022/10/29 13:43:34;;;;;;;0.20;0.10;;;;;;;;;;5043541;28;20105;-86
2022/10/29 13:46:03;;;;;;;0.20;0.10;;;;;;;;;;5053026;28;21610;-86
2022/10/29 13:48:39;;;;;;;0.20;0.10;;;;;;;;;;5035423;28;20040;-85
2022/10/29 13:51:11;;;;;;;0.20;0.10;;;;;;;;;;5037050;28;20040;-87
2022/10/29 13:53:45;;;;;;;0.20;0.10;;;;;;;;;;5035223;28;20040;-85
2022/10/29 13:56:15;;;;;;;0.20;0.10;;;;;;;;;;5039355;28;20044;-86
2022/10/29 13:58:43;;;;;;;0.20;0.10;;;;;;;;;;5032332;28;20812;-88
2022/10/29 14:01:14;;;;;;;0.20;0.10;;;;;;;;;;5032173;28;20051;-85
2022/10/29 14:03:54;;;;;;;0.20;0.10;;;;;;;;;;5051405;28;20128;-85
2022/10/29 14:06:22;;;;;;;0.20;0.10;;;;;;;;;;5050727;28;20834;-85
2022/10/29 14:08:53;;;;;;;0.20;0.10;;;;;;;;;;5039694;28;20051;-85
2022/10/29 14:11:24;;;;;;;0.20;0.10;;;;;;;;;;5050787;28;20040;-85
2022/10/29 14:13:52;;;;;;;0.20;0.10;;;;;;;;;;5037082;28;20083;-86
2022/10/29 14:16:19;;;;;;;0.20;0.10;;;;;;;;;;5033187;28;20029;-84
2022/10/29 14:18:49;;;;;;;0.20;0.10;;;;;;;;;;5034990;28;20669;-88
2022/10/29 14:21:21;;;;;;;0.20;0.10;;;;;;;;;;5052361;28;20045;-87
2022/10/29 14:23:54;;;;;;;0.43;0.25;;;;;;;;;;5051651;28;21660;-87
2022/10/29 14:26:22;;;;;;;0.20;0.10;;;;;;;;;;5031073;28;20044;-85
2022/10/29 14:28:48;;;;;;;0.20;0.10;;;;;;;;;;5035301;28;20074;-84
2022/10/29 14:31:16;;;;;;;0.20;0.10;;;;;;;;;;5033312;28;20059;-85
2022/10/29 14:33:43;;;;;;;0.20;0.10;;;;;;;;;;5053854;28;20045;-86
2022/10/29 14:36:21;;;;;;;0.20;0.10;;;;;;;;;;5031878;28;20044;-86
2022/10/29 14:39:11;;;;;;;0.20;0.10;;;;;;;;;;5051678;28;20029;-85
2022/10/29 14:41:38;;;;;;;0.20;0.10;;;;;;;;;;5046684;28;20079;-87
2022/10/29 14:44:08;;;;;;;0.20;0.10;;;;;;;;;;5049098;28;20074;-86
2022/10/29 14:46:35;;;;;;;0.20;0.10;;;;;;;;;;5040175;28;20040;-85
2022/10/29 14:49:04;;;;;;;0.30;0.10;;;;;;;;;;5043676;28;20044;-88
2022/10/29 14:51:35;;;;;;;0.20;0.10;;;;;;;;;;5065545;28;21063;-89
2022/10/29 14:54:05;;;;;;;0.20;0.10;;;;;;;;;;5058458;28;20476;-89
2022/10/29 14:56:36;;;;;;;0.20;0.20;;;;;;;;;;5059650;28;20044;-86
2022/10/29 14:59:07;;;;;;;0.20;0.10;;;;;;;;;;5055565;28;20199;-85
2022/10/29 15:01:33;;;;;;;0.20;0.10;;;;;;;;;;5041519;28;20538;-85